Decoded Metar for DTTG (GABES in TUNISIA) (IATA:GAE) | Meteo·Mobile Aviation Weather
aviador You're here:

DTTG Decoded Metar

GABES in TUNISIA
Report Time2019-05-25 21:00:00
UTC Time2019-05-25 23:04:18
Flight Rules Old
Wind070° at 03 kt
W.Decomp.*RWY 06: 3.0 kt HW 0.5 kt RCW
Visibility8000 m
Phenomena:N/A
Clouds:Few 020 Hf
Scattered 030 Hf
Expected CloudBase > 2,400 ft AGL from Temp-Dew spread
CeilingNone
Temp21°C (ISA +6)
Dew Point15°C (69% RH)
QNH1008 hPa
Density Alt1,115 ft
Elevation16 ft
Report Wrong Elevation
Raw Report
DTTG 252100Z 07003KT 060V120 8000 FEW020 SCT030 21/15 Q1008
NOSIG=

Extra information for DTTG:More info

Metar Taf Metar & Taf Last 4 Metars F.Rules Stats Wind Profile Meteogram Temp Stats Airport Information Weather charts Add Link Nearby VenuesMetar ALERT Operation Metar Decoded Social comments